Landenberg, Pennsylvania
Current Conditions -  °F | °C
As of 5:51 AM on Friday 24 Oct 2014 (Local Time) from KILG Reporting Station
Overcast Overcast  
Wind Chill: 57°   Ceiling: 3400
Heat Index: 57°   Visibility: 10mi
Dew Point: 46°   Wind: 13mph
Humidity: 67%   Direction: 330°NNW
Pressure: 29.87"   Gusts: 21mph
Location:  39.78°N, 75.77°W
Report Text: KILG 240951Z 33011G18KT 10SM OVC034 14/08 A2987 RMK AO2 SLP114 T01390078
Loading
Personal Weather Stations






























Interactive Weather Map
Tropical Storm Tracking
New forecast layout! Learn more

10-Day Weather Forecast

Advertisements
Track Severe Weather on mobile